createdAt,value
2018-03-30T00:02:08.426Z,10.70
2018-03-30T00:04:35.982Z,11.40
2018-03-30T00:07:09.057Z,10.80
2018-03-30T00:09:48.245Z,10.67
2018-03-30T00:12:17.426Z,11.10
2018-03-30T00:14:44.952Z,11.30
2018-03-30T00:17:12.484Z,11.13
2018-03-30T00:19:40.011Z,10.60
2018-03-30T00:22:07.542Z,12.13
2018-03-30T00:24:35.111Z,11.67
2018-03-30T00:27:03.397Z,9.87
2018-03-30T00:29:30.914Z,10.83
2018-03-30T00:31:58.446Z,10.87
2018-03-30T00:34:25.981Z,11.13
2018-03-30T00:36:54.079Z,12.37
2018-03-30T00:39:22.591Z,11.20
2018-03-30T00:41:50.121Z,11.37
2018-03-30T00:44:17.789Z,12.07
2018-03-30T00:46:45.311Z,12.23
2018-03-30T00:49:12.869Z,13.07
2018-03-30T00:51:40.834Z,13.03
2018-03-30T00:54:08.356Z,11.87
2018-03-30T00:56:35.886Z,11.87
2018-03-30T00:59:03.417Z,13.43
2018-03-30T01:01:31.766Z,13.93
2018-03-30T01:04:00.141Z,14.20
2018-03-30T01:06:27.686Z,15.17
2018-03-30T01:08:55.223Z,15.47
2018-03-30T01:11:22.750Z,15.83
2018-03-30T01:13:50.274Z,17.00
2018-03-30T01:16:18.548Z,16.63
2018-03-30T01:18:47.308Z,17.00
2018-03-30T01:21:14.838Z,18.30
2018-03-30T01:23:42.860Z,18.50
2018-03-30T01:26:10.402Z,19.13
2018-03-30T01:28:38.698Z,18.77
2018-03-30T01:31:06.231Z,20.73
2018-03-30T01:33:33.758Z,20.03
2018-03-30T01:36:04.933Z,19.87
2018-03-30T01:38:32.462Z,20.97
2018-03-30T01:40:59.982Z,21.23
2018-03-30T01:43:27.639Z,20.80
2018-03-30T01:45:55.160Z,22.07
2018-03-30T01:48:22.686Z,21.83
2018-03-30T01:50:50.223Z,21.70
2018-03-30T01:53:17.753Z,21.93
2018-03-30T01:55:45.283Z,22.83
2018-03-30T01:58:12.811Z,22.47
2018-03-30T02:00:40.345Z,23.13
2018-03-30T02:03:07.863Z,22.57
2018-03-30T02:05:35.389Z,23.77
2018-03-30T02:08:02.908Z,24.47
2018-03-30T02:10:30.438Z,24.63
2018-03-30T02:12:57.965Z,23.30
2018-03-30T02:15:25.485Z,25.43
2018-03-30T02:17:53.010Z,24.73
2018-03-30T02:20:20.537Z,25.13
2018-03-30T02:22:48.096Z,24.47
2018-03-30T02:25:15.698Z,25.03
2018-03-30T02:27:43.443Z,24.60
2018-03-30T02:30:11.225Z,24.63
2018-03-30T02:32:38.920Z,24.90
2018-03-30T02:35:06.474Z,26.27
2018-03-30T02:37:34.067Z,25.67
2018-03-30T02:40:01.702Z,25.60
2018-03-30T02:42:29.227Z,23.77
2018-03-30T02:44:56.775Z,24.90
2018-03-30T02:47:24.351Z,25.07
2018-03-30T02:49:51.922Z,25.27
2018-03-30T02:52:19.527Z,25.40
2018-03-30T02:54:48.053Z,24.57
2018-03-30T02:57:15.682Z,24.30
2018-03-30T02:59:43.339Z,25.67
2018-03-30T03:02:11.097Z,24.17
2018-03-30T03:04:39.352Z,25.43
2018-03-30T03:07:07.151Z,24.37
2018-03-30T03:09:34.771Z,23.73
2018-03-30T03:12:03.166Z,25.63
2018-03-30T03:14:31.129Z,25.13
2018-03-30T03:16:58.834Z,25.67
2018-03-30T03:19:27.029Z,24.67
2018-03-30T03:21:54.661Z,25.70
2018-03-30T03:24:23.174Z,25.07
2018-03-30T03:26:52.269Z,25.17
2018-03-30T03:29:20.790Z,23.87
2018-03-30T03:31:48.364Z,24.93
2018-03-30T03:34:15.929Z,24.83
2018-03-30T03:36:44.490Z,24.90
2018-03-30T03:39:12.080Z,24.27
2018-03-30T03:41:39.748Z,23.23
2018-03-30T03:44:08.417Z,23.53
2018-03-30T03:46:36.056Z,24.67
2018-03-30T03:49:04.508Z,25.17
2018-03-30T03:51:32.080Z,26.27
2018-03-30T03:53:59.737Z,26.87
2018-03-30T03:56:27.976Z,25.80
2018-03-30T03:58:55.626Z,26.50
2018-03-30T04:01:23.316Z,25.70
2018-03-30T04:03:51.028Z,26.17
2018-03-30T04:06:18.713Z,26.83
2018-03-30T04:08:47.345Z,24.77
2018-03-30T04:11:15.026Z,24.43
2018-03-30T04:13:42.657Z,24.50
2018-03-30T04:16:10.221Z,23.50
2018-03-30T04:18:37.834Z,22.83
2018-03-30T04:21:05.415Z,22.23
2018-03-30T04:23:32.958Z,21.57
2018-03-30T04:26:01.425Z,21.83
2018-03-30T04:28:28.952Z,21.40
2018-03-30T04:30:57.214Z,21.33
2018-03-30T04:33:25.798Z,21.07
2018-03-30T04:35:53.793Z,20.07
2018-03-30T04:38:21.329Z,19.33
2018-03-30T04:40:48.858Z,19.30
2018-03-30T04:43:16.378Z,18.27
2018-03-30T04:45:43.901Z,18.40
2018-03-30T04:48:11.438Z,18.20
2018-03-30T04:50:38.970Z,17.67
2018-03-30T04:53:06.498Z,18.93
2018-03-30T04:55:34.025Z,17.83
2018-03-30T04:58:01.552Z,17.63
2018-03-30T05:00:29.085Z,17.90
2018-03-30T05:02:56.613Z,18.47
2018-03-30T05:05:25.023Z,17.93
2018-03-30T05:07:52.617Z,18.50
2018-03-30T05:10:20.103Z,18.83
2018-03-30T05:12:47.624Z,18.63
2018-03-30T05:15:15.160Z,20.03
2018-03-30T05:17:42.682Z,19.53
2018-03-30T05:20:10.206Z,20.10
2018-03-30T05:22:37.725Z,19.93
2018-03-30T05:25:05.250Z,18.27
2018-03-30T05:27:32.885Z,19.50
2018-03-30T05:30:00.428Z,19.63
2018-03-30T06:54:24.926Z,9.83
2018-03-30T06:56:52.462Z,9.63
2018-03-30T06:59:19.999Z,9.60
2018-03-30T07:01:47.544Z,10.73
2018-03-30T07:04:15.074Z,10.20
2018-03-30T07:06:42.619Z,10.13
2018-03-30T07:09:10.179Z,10.80
2018-03-30T07:11:38.659Z,10.30
2018-03-30T07:14:06.196Z,10.63
2018-03-30T07:16:33.768Z,10.63
2018-03-30T07:19:01.318Z,11.00
2018-03-30T07:21:28.840Z,11.27
2018-03-30T07:23:56.365Z,10.67
2018-03-30T07:26:23.893Z,10.73
2018-03-30T07:28:52.256Z,11.77
2018-03-30T07:31:19.793Z,11.90
2018-03-30T07:33:47.331Z,11.60
2018-03-30T07:36:15.811Z,11.70
2018-03-30T07:38:43.333Z,12.30
2018-03-30T07:41:10.857Z,12.57
2018-03-30T07:43:39.128Z,12.10
2018-03-30T07:46:06.658Z,12.00
2018-03-30T07:48:34.185Z,11.13
2018-03-30T07:51:01.710Z,12.00
2018-03-30T07:53:29.236Z,11.80
2018-03-30T07:55:56.766Z,11.83
2018-03-30T07:58:24.296Z,11.67
2018-03-30T08:00:52.430Z,12.00
2018-03-30T08:03:20.193Z,12.10
2018-03-30T08:05:48.681Z,12.47
2018-03-30T08:08:16.850Z,12.20
2018-03-30T08:10:44.370Z,11.90
2018-03-30T08:13:12.518Z,12.27
2018-03-30T08:15:40.739Z,12.97
2018-03-30T08:18:08.335Z,13.30
2018-03-30T08:20:35.840Z,12.30
2018-03-30T08:23:04.294Z,12.60
2018-03-30T08:25:31.841Z,12.83
2018-03-30T08:27:59.373Z,11.73
2018-03-30T08:30:26.912Z,12.10
2018-03-30T08:32:55.016Z,12.20
2018-03-30T08:35:22.535Z,12.23
2018-03-30T08:37:50.062Z,12.13
2018-03-30T08:40:18.201Z,12.90
2018-03-30T08:42:45.714Z,13.50
2018-03-30T08:45:13.264Z,13.37
2018-03-30T08:47:41.136Z,14.80
2018-03-30T08:50:08.657Z,14.83
2018-03-30T08:52:39.045Z,15.00
2018-03-30T08:55:07.139Z,14.87
2018-03-30T08:57:34.670Z,15.60
2018-03-30T09:00:02.587Z,16.27
2018-03-30T09:02:30.133Z,16.87
2018-03-30T09:04:57.729Z,16.07
2018-03-30T09:07:25.275Z,16.17
2018-03-30T09:09:52.812Z,16.53
2018-03-30T09:12:20.436Z,16.30
2018-03-30T09:14:47.958Z,16.60
2018-03-30T09:17:15.574Z,16.87
2018-03-30T09:19:43.092Z,18.40
2018-03-30T09:22:10.686Z,17.53
2018-03-30T09:24:38.208Z,18.50
2018-03-30T09:27:05.856Z,17.60
2018-03-30T09:29:33.357Z,17.27
2018-03-30T09:32:00.916Z,17.60
2018-03-30T09:34:28.468Z,18.00
2018-03-30T09:36:56.114Z,17.87
2018-03-30T09:39:23.645Z,17.80
2018-03-30T09:41:51.161Z,18.37
2018-03-30T09:44:18.684Z,18.07
2018-03-30T09:46:46.209Z,18.00
2018-03-30T09:49:13.720Z,18.47
2018-03-30T09:51:41.286Z,18.87
2018-03-30T09:54:08.825Z,18.33
2018-03-30T09:56:36.344Z,18.97
2018-03-30T09:59:03.880Z,18.57
2018-03-30T10:01:31.406Z,18.67
2018-03-30T10:03:58.945Z,19.43
2018-03-30T10:06:26.492Z,18.80
2018-03-30T10:08:54.034Z,18.00
2018-03-30T10:11:21.676Z,18.57
2018-03-30T10:13:49.205Z,18.27
2018-03-30T10:16:16.808Z,18.43
2018-03-30T10:18:44.480Z,18.77
2018-03-30T10:21:12.126Z,17.97
2018-03-30T10:23:39.654Z,16.93
2018-03-30T10:26:07.253Z,16.97
2018-03-30T10:28:34.774Z,17.50
2018-03-30T10:31:02.293Z,16.90
2018-03-30T10:33:29.820Z,16.90
2018-03-30T10:35:57.352Z,17.20
2018-03-30T10:38:24.871Z,17.23
2018-03-30T10:40:52.396Z,18.20
2018-03-30T10:43:19.965Z,18.65
2018-03-30T10:45:47.489Z,18.45
2018-03-30T10:48:15.075Z,18.30
2018-03-30T10:50:43.478Z,18.40
2018-03-30T10:53:11.019Z,19.35
2018-03-30T10:55:38.582Z,19.45
2018-03-30T10:58:06.135Z,17.70
2018-03-30T11:00:33.680Z,19.47
2018-03-30T11:03:01.222Z,20.20
2018-03-30T11:05:28.816Z,19.17
2018-03-30T11:07:56.379Z,19.70
2018-03-30T11:10:23.993Z,20.07
2018-03-30T11:12:51.544Z,19.90
2018-03-30T11:15:19.070Z,19.13
2018-03-30T11:17:46.926Z,19.20
2018-03-30T11:20:14.484Z,20.53
2018-03-30T11:22:42.067Z,19.73
2018-03-30T11:25:09.568Z,19.83
2018-03-30T11:27:37.104Z,20.93
2018-03-30T11:30:04.633Z,20.30
2018-03-30T11:32:32.154Z,18.17
2018-03-30T11:34:59.683Z,19.13
2018-03-30T11:37:27.225Z,19.63
2018-03-30T11:39:54.759Z,18.97
2018-03-30T11:42:22.289Z,19.20
2018-03-30T11:44:49.824Z,17.57
2018-03-30T11:47:17.407Z,18.93
2018-03-30T11:49:44.934Z,19.47
2018-03-30T11:52:12.497Z,18.17
2018-03-30T11:54:40.068Z,18.27
2018-03-30T11:57:07.615Z,18.40
2018-03-30T11:59:35.143Z,16.90
2018-03-30T12:02:02.660Z,18.70
2018-03-30T12:04:30.265Z,18.73
2018-03-30T12:06:57.791Z,16.67
2018-03-30T12:09:25.314Z,17.50
2018-03-30T12:11:52.834Z,17.03
2018-03-30T12:14:20.362Z,16.90
2018-03-30T12:16:47.954Z,16.87
2018-03-30T12:19:15.516Z,18.03
2018-03-30T12:21:43.081Z,18.83
2018-03-30T12:24:10.605Z,17.23
2018-03-30T12:26:38.132Z,15.17
2018-03-30T12:29:05.684Z,17.37
2018-03-30T12:31:33.316Z,16.60
2018-03-30T12:34:00.845Z,15.80
2018-03-30T12:36:28.385Z,16.23
2018-03-30T12:38:55.926Z,16.50
2018-03-30T12:41:23.454Z,16.27
2018-03-30T12:43:50.982Z,16.57
2018-03-30T12:46:18.626Z,15.93
2018-03-30T12:48:46.139Z,15.67
2018-03-30T12:51:13.663Z,16.00
2018-03-30T12:53:41.204Z,16.40
2018-03-30T12:56:08.741Z,14.93
2018-03-30T12:58:36.270Z,15.40
2018-03-30T13:01:03.785Z,16.77
2018-03-30T13:03:31.333Z,16.13
2018-03-30T13:05:58.898Z,15.20
2018-03-30T13:08:26.509Z,15.20
2018-03-30T13:10:54.026Z,14.93
2018-03-30T13:13:21.560Z,15.47
2018-03-30T13:15:49.091Z,13.23
2018-03-30T13:18:16.749Z,13.03
2018-03-30T13:20:44.282Z,13.90
2018-03-30T13:23:11.869Z,13.43
2018-03-30T13:25:39.398Z,13.03
2018-03-30T13:28:06.930Z,12.80
2018-03-30T13:30:34.457Z,12.90
2018-03-30T13:33:01.986Z,13.37
2018-03-30T13:35:29.521Z,13.03
2018-03-30T13:37:57.132Z,13.50
2018-03-30T13:40:24.654Z,14.17
2018-03-30T13:42:52.174Z,15.33
2018-03-30T13:45:19.712Z,13.97
2018-03-30T13:47:47.250Z,14.20
2018-03-30T13:50:14.782Z,11.50
2018-03-30T13:52:44.127Z,12.23
2018-03-30T13:55:11.650Z,12.47
2018-03-30T13:57:40.023Z,13.23
2018-03-30T14:03:04.944Z,11.37
2018-03-30T14:08:33.573Z,10.90
2018-03-30T14:11:02.859Z,12.27
2018-03-30T14:13:30.378Z,12.87
2018-03-30T14:16:08.259Z,11.57
2018-03-30T14:18:36.737Z,13.20
2018-03-30T14:21:05.078Z,11.67
2018-03-30T14:23:33.680Z,12.07
2018-03-30T14:26:15.089Z,12.27
2018-03-30T14:28:44.482Z,12.90
2018-03-30T14:31:17.625Z,12.03
2018-03-30T14:33:46.653Z,11.17
2018-03-30T14:36:32.917Z,12.30
2018-03-30T14:39:12.038Z,12.50
2018-03-30T14:41:39.605Z,11.53
2018-03-30T14:44:11.810Z,11.13
2018-03-30T14:46:50.102Z,12.23
2018-03-30T14:49:18.517Z,11.57
2018-03-30T14:54:50.234Z,11.43
2018-03-30T14:57:20.549Z,11.80
2018-03-30T14:59:51.147Z,11.13
2018-03-30T15:02:30.253Z,12.50
2018-03-30T15:04:58.585Z,11.90
2018-03-30T15:07:29.675Z,12.07
2018-03-30T15:10:05.865Z,11.80
2018-03-30T15:15:48.590Z,11.50
2018-03-30T15:18:18.931Z,11.77
2018-03-30T15:23:48.521Z,12.00
2018-03-30T15:29:18.565Z,12.80
2018-03-30T15:32:07.655Z,13.07
2018-03-30T15:34:50.633Z,12.23
2018-03-30T15:37:18.245Z,12.03
2018-03-30T15:40:06.249Z,12.80
2018-03-30T15:42:48.662Z,12.00
2018-03-30T15:45:17.071Z,12.93
2018-03-30T15:47:44.605Z,13.27
2018-03-30T15:50:12.126Z,13.13
2018-03-30T15:52:39.663Z,12.27
2018-03-30T15:55:07.203Z,12.80
2018-03-30T15:57:34.802Z,13.03
2018-03-30T16:00:02.347Z,13.37
2018-03-30T16:02:29.989Z,14.40
2018-03-30T16:04:57.522Z,14.37
2018-03-30T16:07:25.040Z,13.23
2018-03-30T16:09:53.588Z,13.73
2018-03-30T16:12:21.970Z,13.17
2018-03-30T16:14:49.503Z,12.27
2018-03-30T16:17:17.024Z,12.50
2018-03-30T16:19:44.022Z,12.47
2018-03-30T16:22:11.023Z,12.67
2018-03-30T16:24:38.127Z,12.67
2018-03-30T16:27:05.181Z,13.80
2018-03-30T16:29:32.188Z,13.60
2018-03-30T16:31:59.175Z,13.20
2018-03-30T16:34:26.227Z,13.57
2018-03-30T16:36:53.246Z,13.00
2018-03-30T16:39:20.317Z,13.13
2018-03-30T16:41:47.300Z,12.63
2018-03-30T16:44:14.291Z,10.87
2018-03-30T16:46:41.294Z,11.77
2018-03-30T16:49:08.420Z,12.00
2018-03-30T16:51:35.409Z,11.33
2018-03-30T16:54:02.502Z,11.07
2018-03-30T16:56:29.486Z,10.37
2018-03-30T16:58:56.597Z,10.30
2018-03-30T17:01:23.574Z,10.50
2018-03-30T17:03:50.592Z,10.30
2018-03-30T17:06:17.577Z,11.07
2018-03-30T17:08:44.674Z,10.00
2018-03-30T17:11:11.669Z,10.50
2018-03-30T17:13:38.665Z,10.43
2018-03-30T17:16:05.688Z,9.83
2018-03-30T17:18:32.713Z,9.70
2018-03-30T17:20:59.697Z,9.30
2018-03-30T17:23:26.705Z,9.50
2018-03-30T17:25:53.680Z,10.13
2018-03-30T17:28:20.699Z,9.60
2018-03-30T17:30:47.717Z,10.07
2018-03-30T17:33:14.725Z,9.97
2018-03-30T17:35:41.710Z,9.67
2018-03-30T17:38:08.725Z,8.77
2018-03-30T17:40:35.722Z,9.40
2018-03-30T17:43:02.726Z,10.10
2018-03-30T17:45:30.690Z,9.47
2018-03-30T17:47:57.693Z,9.37
2018-03-30T17:50:24.713Z,10.07
2018-03-30T17:52:51.703Z,8.87
2018-03-30T17:55:18.808Z,9.40
2018-03-30T17:57:45.790Z,9.50
2018-03-30T18:00:12.835Z,9.70
2018-03-30T18:02:40.445Z,9.00
2018-03-30T18:05:07.517Z,9.73
2018-03-30T18:07:34.506Z,8.33
2018-03-30T18:10:01.612Z,8.67
2018-03-30T18:12:28.657Z,8.63
2018-03-30T18:14:55.653Z,9.30
2018-03-30T18:17:22.756Z,8.20
2018-03-30T18:19:49.734Z,9.03
2018-03-30T18:22:16.854Z,8.53
2018-03-30T18:24:43.935Z,8.37
2018-03-30T18:27:10.945Z,8.17
2018-03-30T18:29:37.923Z,8.10
2018-03-30T18:32:04.909Z,7.80
2018-03-30T18:34:31.987Z,8.23
2018-03-30T18:36:59.038Z,8.17
2018-03-30T18:39:26.050Z,8.10
2018-03-30T18:41:53.052Z,7.90
2018-03-30T18:44:20.045Z,8.23
2018-03-30T18:46:47.040Z,8.20
2018-03-30T18:49:14.036Z,7.93
2018-03-30T18:51:41.037Z,7.50
2018-03-30T18:54:08.060Z,7.93
2018-03-30T18:56:35.037Z,8.40
2018-03-30T18:59:02.021Z,8.93
2018-03-30T19:01:29.021Z,8.43
2018-03-30T19:03:56.014Z,8.30
2018-03-30T19:06:23.014Z,8.97
2018-03-30T19:08:50.037Z,8.97
2018-03-30T19:11:17.197Z,9.33
2018-03-30T19:13:44.192Z,8.90
2018-03-30T19:16:11.205Z,9.67
2018-03-30T19:18:38.202Z,10.70
2018-03-30T19:21:05.211Z,9.65
2018-03-30T19:23:32.193Z,9.73
2018-03-30T19:25:59.193Z,9.67
2018-03-30T19:28:26.218Z,9.20
2018-03-30T19:30:53.268Z,9.37
2018-03-30T19:33:20.252Z,9.77
2018-03-30T19:35:47.234Z,9.77
2018-03-30T19:38:14.240Z,10.20
2018-03-30T19:40:41.237Z,10.60
2018-03-30T19:43:08.222Z,10.73
2018-03-30T19:45:35.250Z,11.13
2018-03-30T19:48:02.227Z,10.93
2018-03-30T19:50:29.208Z,10.97
2018-03-30T19:52:56.209Z,10.93
2018-03-30T19:55:23.197Z,11.17
2018-03-30T19:57:50.205Z,10.83
2018-03-30T20:00:17.224Z,11.20
2018-03-30T20:02:44.203Z,11.20
2018-03-30T20:05:11.218Z,10.27
2018-03-30T20:07:39.054Z,10.97
2018-03-30T20:10:06.121Z,10.50
2018-03-30T20:12:33.256Z,9.83
2018-03-30T20:15:00.335Z,11.17
2018-03-30T20:17:27.328Z,10.83
2018-03-30T20:19:54.334Z,10.67
2018-03-30T20:22:21.349Z,10.27
2018-03-30T20:24:48.345Z,10.13
2018-03-30T20:27:15.339Z,11.30
2018-03-30T20:29:42.343Z,11.20
2018-03-30T20:32:09.359Z,10.13
2018-03-30T20:34:36.348Z,11.20
2018-03-30T20:37:03.388Z,10.73
2018-03-30T20:39:30.539Z,10.30
2018-03-30T20:41:57.552Z,9.17
2018-03-30T20:44:24.533Z,11.03
2018-03-30T20:46:51.517Z,10.70
2018-03-30T20:49:18.598Z,11.17
2018-03-30T20:51:45.610Z,11.17
2018-03-30T20:54:12.615Z,10.90
2018-03-30T20:56:39.635Z,10.80
2018-03-30T20:59:06.856Z,10.77
2018-03-30T21:01:33.865Z,10.90
2018-03-30T21:04:00.852Z,11.07
2018-03-30T21:06:27.866Z,10.00
2018-03-30T21:08:54.980Z,11.00
2018-03-30T21:11:21.980Z,11.43
2018-03-30T21:13:49.137Z,12.27
2018-03-30T21:16:16.241Z,11.73
2018-03-30T21:18:43.273Z,12.00
2018-03-30T21:21:10.393Z,10.40
2018-03-30T21:23:37.542Z,11.73
2018-03-30T21:26:04.553Z,10.27
2018-03-30T21:28:31.556Z,11.77
2018-03-30T21:30:58.578Z,11.70
2018-03-30T21:33:25.640Z,11.50
2018-03-30T21:35:52.683Z,11.80
2018-03-30T21:38:19.696Z,11.47
2018-03-30T21:40:46.733Z,11.90
2018-03-30T21:43:13.727Z,12.37
2018-03-30T21:45:40.806Z,10.43
2018-03-30T21:48:07.858Z,12.57
2018-03-30T21:50:34.866Z,12.43
2018-03-30T21:53:01.857Z,12.50
2018-03-30T21:55:28.856Z,12.93
2018-03-30T21:57:55.854Z,14.07
2018-03-30T22:00:22.848Z,12.87
2018-03-30T22:02:49.844Z,13.07
2018-03-30T22:05:16.834Z,12.23
2018-03-30T22:07:43.850Z,11.93
2018-03-30T22:10:10.837Z,13.70
2018-03-30T22:12:37.845Z,13.17
2018-03-30T22:15:04.829Z,13.73
2018-03-30T22:17:31.832Z,12.27
2018-03-30T22:19:58.843Z,12.97
2018-03-30T22:22:26.106Z,14.07
2018-03-30T22:24:53.162Z,12.50
2018-03-30T22:27:20.297Z,13.90
2018-03-30T22:29:47.360Z,14.10
2018-03-30T22:32:14.406Z,12.93
2018-03-30T22:34:41.438Z,13.87
2018-03-30T22:37:08.501Z,13.93
2018-03-30T22:39:35.486Z,13.77
2018-03-30T22:42:02.460Z,14.47
2018-03-30T22:44:29.487Z,13.67
2018-03-30T22:46:56.490Z,13.93
2018-03-30T22:49:23.468Z,14.27
2018-03-30T22:51:50.493Z,14.67
2018-03-30T22:54:17.494Z,13.77
2018-03-30T22:56:44.576Z,14.37
2018-03-30T22:59:11.550Z,13.10
2018-03-30T23:01:38.645Z,9.93
2018-03-30T23:04:05.632Z,12.27
2018-03-30T23:06:32.605Z,13.30
2018-03-30T23:08:59.612Z,12.53
2018-03-30T23:11:26.627Z,13.33
2018-03-30T23:13:53.628Z,13.90
2018-03-30T23:16:20.621Z,13.73
2018-03-30T23:18:47.626Z,13.97
2018-03-30T23:21:14.614Z,12.43
2018-03-30T23:23:41.696Z,13.40
2018-03-30T23:26:08.846Z,13.43
2018-03-30T23:28:35.897Z,12.13
2018-03-30T23:31:02.894Z,12.77
2018-03-30T23:33:29.888Z,13.53
2018-03-30T23:35:57.091Z,12.37
2018-03-30T23:38:24.152Z,13.30
2018-03-30T23:40:51.174Z,13.40
2018-03-30T23:43:18.149Z,13.13
2018-03-30T23:45:45.162Z,13.53
2018-03-30T23:48:12.284Z,13.03
2018-03-30T23:50:39.262Z,13.03
2018-03-30T23:53:06.273Z,13.30
2018-03-30T23:55:33.322Z,13.43
2018-03-30T23:58:00.370Z,13.00
